Crozet, Virginia
Current Conditions -  °F | °C
As of 2:15 PM on Monday 20 Oct 2014 (Local Time) from KW13 Reporting Station
Clear Clear  
Wind Chill: 65°   Ceiling: Unl
Heat Index: 65°   Visibility: 10mi
Dew Point: 38°   Wind: 13mph
Humidity: 37%   Direction: 220°SW
Pressure: 29.96"   Gusts: 18mph
Location:  38.07°N, 78.7°W
Report Text: KW13 201815Z AUTO 22011G16KT 10SM CLR 18/03 A2996 RMK AO1 T01830033
Loading
Personal Weather Stations






























Interactive Weather Map
Tropical Storm Tracking
New forecast layout! Learn more

10-Day Weather Forecast

Advertisements
Track Severe Weather on mobile